Time;durP1;ratioP1;P1;durP2;ratioP2;P2;SDS_P1;SDS_P2;PMS_P1;PMS_P2;Temp;Humidity;BMP_temperature;BMP_pressure;BME280_temperature;BME280_humidity;BME280_pressure;Samples;Min_cycle;Max_cycle;Signal;HPM_P1;HPM_P2
2024/01/11 00:01:37;;;;;;;23.20;15.37;;;;;;;-5.98;100.00;102979.25;5026724;28;20036;-64
2024/01/11 00:04:02;;;;;;;23.77;15.77;;;;;;;-6.03;100.00;102974.47;5025833;28;20028;-63
2024/01/11 00:06:27;;;;;;;25.53;16.03;;;;;;;-6.04;100.00;102977.72;5027890;28;20505;-63
2024/01/11 00:08:53;;;;;;;23.07;15.27;;;;;;;-6.07;100.00;102964.72;5032725;28;20026;-63
2024/01/11 00:11:19;;;;;;;25.37;15.63;;;;;;;-6.09;100.00;102973.72;5033096;28;20489;-63
2024/01/11 00:13:44;;;;;;;26.93;16.87;;;;;;;-6.08;100.00;102973.00;5032414;28;20108;-63
2024/01/11 00:16:09;;;;;;;24.43;16.00;;;;;;;-6.09;100.00;102976.25;5032831;28;20140;-63
2024/01/11 00:18:34;;;;;;;27.27;16.43;;;;;;;-6.10;100.00;102974.44;5033360;28;20061;-63
2024/01/11 00:21:00;;;;;;;25.50;15.37;;;;;;;-6.09;100.00;102980.38;5032875;28;20033;-63
2024/01/11 00:23:26;;;;;;;25.57;16.20;;;;;;;-6.12;100.00;102983.41;5032863;28;20025;-63
2024/01/11 00:25:51;;;;;;;21.20;15.37;;;;;;;-6.15;100.00;102977.91;5033092;28;20386;-63
2024/01/11 00:28:16;;;;;;;23.40;16.03;;;;;;;-6.18;100.00;102980.97;5032776;28;20469;-64
2024/01/11 00:30:41;;;;;;;22.57;15.57;;;;;;;-6.19;100.00;102981.66;5032562;28;20068;-63
2024/01/11 00:33:07;;;;;;;28.00;15.70;;;;;;;-6.19;100.00;102980.75;5032695;28;20100;-63
2024/01/11 00:35:32;;;;;;;25.47;16.07;;;;;;;-6.20;100.00;102978.91;5033149;28;20036;-63
2024/01/11 00:37:57;;;;;;;23.67;14.93;;;;;;;-6.23;100.00;102971.88;5033014;28;20452;-63
2024/01/11 00:40:23;;;;;;;23.60;15.70;;;;;;;-6.23;100.00;102978.53;5031336;28;20041;-63
2024/01/11 00:42:48;;;;;;;33.60;18.53;;;;;;;-6.25;100.00;102978.31;5032380;28;20018;-63
2024/01/11 00:45:14;;;;;;;25.73;17.17;;;;;;;-6.24;100.00;102981.75;5032851;28;20128;-63
2024/01/11 00:47:39;;;;;;;25.03;15.93;;;;;;;-6.29;100.00;102971.94;5032825;28;20268;-63
2024/01/11 00:50:05;;;;;;;24.23;16.17;;;;;;;-6.29;100.00;102973.56;5030754;28;20049;-63
2024/01/11 00:52:30;;;;;;;23.90;16.33;;;;;;;-6.30;100.00;102980.25;5032559;28;20546;-63
2024/01/11 00:54:55;;;;;;;28.63;17.03;;;;;;;-6.30;100.00;102967.63;5033055;28;20029;-63
2024/01/11 00:57:20;;;;;;;25.53;16.27;;;;;;;-6.33;100.00;102977.28;5032764;28;20029;-63
2024/01/11 00:59:47;;;;;;;24.83;16.23;;;;;;;-6.33;100.00;102966.28;5032428;28;20053;-64
2024/01/11 01:02:12;;;;;;;25.10;15.97;;;;;;;-6.34;100.00;102970.41;5033441;28;20063;-63
2024/01/11 01:04:39;;;;;;;25.53;16.23;;;;;;;-6.36;100.00;102973.44;5033463;28;20134;-63
2024/01/11 01:07:04;;;;;;;22.83;15.20;;;;;;;-6.36;100.00;102979.41;5032687;28;20047;-64
2024/01/11 01:09:30;;;;;;;24.57;16.20;;;;;;;-6.39;100.00;102973.94;5029024;28;20234;-63
2024/01/11 01:11:55;;;;;;;24.77;16.30;;;;;;;-6.41;100.00;102971.22;5032729;28;20048;-64
2024/01/11 01:14:21;;;;;;;28.43;17.13;;;;;;;-6.39;100.00;102976.47;5032934;28;20041;-63
2024/01/11 01:16:46;;;;;;;31.83;17.53;;;;;;;-6.42;100.00;102982.00;5032734;28;20079;-63
2024/01/11 01:19:11;;;;;;;24.60;16.80;;;;;;;-6.42;100.00;102988.69;5029735;28;20075;-63
2024/01/11 01:21:37;;;;;;;25.97;16.93;;;;;;;-6.44;100.00;102990.97;5029451;28;20052;-63
2024/01/11 01:24:03;;;;;;;28.83;17.40;;;;;;;-6.44;100.00;102993.50;5030047;28;20029;-63
2024/01/11 01:26:28;;;;;;;28.17;16.67;;;;;;;-6.45;100.00;102988.25;5029824;28;20323;-63
2024/01/11 01:28:54;;;;;;;26.67;15.60;;;;;;;-6.49;100.00;102991.06;5029948;28;20033;-63
2024/01/11 01:31:20;;;;;;;27.50;17.50;;;;;;;-6.49;100.00;102993.59;5028139;28;20030;-63
2024/01/11 01:33:46;;;;;;;25.63;16.43;;;;;;;-6.51;100.00;102996.81;5029724;28;20025;-63
2024/01/11 01:36:12;;;;;;;26.43;16.73;;;;;;;-6.49;100.00;102993.59;5030236;28;20083;-63
2024/01/11 01:38:37;;;;;;;25.27;17.10;;;;;;;-6.52;100.00;103002.56;5029265;28;20029;-63
2024/01/11 01:41:02;;;;;;;28.30;16.00;;;;;;;-6.53;100.00;102998.19;5029366;28;20079;-63
2024/01/11 01:43:28;;;;;;;30.20;17.13;;;;;;;-6.54;100.00;103009.00;5028432;28;20049;-63
2024/01/11 01:45:53;;;;;;;25.13;15.70;;;;;;;-6.57;100.00;103011.13;5028706;28;20030;-63
2024/01/11 01:48:19;;;;;;;26.13;16.27;;;;;;;-6.58;100.00;103014.34;5029169;28;20029;-64
2024/01/11 01:50:50;;;;;;;31.70;17.13;;;;;;;-6.59;100.00;103016.66;5028795;28;20084;-63
2024/01/11 01:53:19;;;;;;;25.17;16.17;;;;;;;-6.61;100.00;103024.00;5028852;28;20470;-63
2024/01/11 01:55:45;;;;;;;27.47;17.50;;;;;;;-6.61;100.00;103024.00;5028014;28;20089;-63
2024/01/11 01:58:11;;;;;;;27.80;17.73;;;;;;;-6.63;100.00;103021.28;5029133;28;20571;-63
2024/01/11 02:00:36;;;;;;;26.03;17.07;;;;;;;-6.62;100.00;103032.28;5028425;28;20033;-63
2024/01/11 02:03:02;;;;;;;26.37;16.70;;;;;;;-6.64;100.00;103031.16;5027996;28;20476;-63
2024/01/11 02:05:27;;;;;;;27.43;17.97;;;;;;;-6.65;100.00;103034.38;5028476;28;20470;-63
2024/01/11 02:07:52;;;;;;;27.47;15.87;;;;;;;-6.68;100.00;103022.28;5028672;28;20025;-63
2024/01/11 02:10:18;;;;;;;27.03;16.50;;;;;;;-6.69;100.00;103019.53;5028507;28;20018;-63
2024/01/11 02:12:44;;;;;;;26.63;15.30;;;;;;;-6.70;100.00;103017.69;5028571;28;20033;-63
2024/01/11 02:15:10;;;;;;;27.17;15.67;;;;;;;-6.73;100.00;103008.13;5028020;28;20057;-63
2024/01/11 02:17:35;;;;;;;25.60;16.73;;;;;;;-6.75;100.00;102999.44;5028343;28;20462;-63
2024/01/11 02:20:03;;;;;;;26.30;17.07;;;;;;;-6.76;100.00;103006.06;5028689;28;20025;-63
2024/01/11 02:22:33;;;;;;;27.00;17.20;;;;;;;-6.79;100.00;103008.19;5028504;28;20021;-63
2024/01/11 02:24:58;;;;;;;23.73;15.47;;;;;;;-6.81;100.00;103002.00;5028596;28;20013;-63
2024/01/11 02:27:23;;;;;;;26.00;16.17;;;;;;;-6.83;100.00;103003.41;5027735;28;20094;-63
2024/01/11 02:29:49;;;;;;;25.13;16.93;;;;;;;-6.86;100.00;103008.03;5027956;28;20144;-63
2024/01/11 02:32:14;;;;;;;25.77;16.20;;;;;;;-6.89;100.00;103012.66;5028281;28;20377;-63
2024/01/11 02:34:40;;;;;;;24.07;15.57;;;;;;;-6.93;100.00;103015.47;5026618;28;20049;-63
2024/01/11 02:37:05;;;;;;;28.00;16.73;;;;;;;-6.97;100.00;103021.69;5027679;28;20060;-63
2024/01/11 02:39:31;;;;;;;26.13;16.47;;;;;;;-6.98;100.00;103019.88;5027201;28;20022;-63
2024/01/11 02:42:00;;;;;;;26.10;17.27;;;;;;;-6.99;100.00;103018.97;5028315;28;20502;-63
2024/01/11 02:44:25;;;;;;;26.83;16.43;;;;;;;-6.98;100.00;103014.84;5027339;28;20059;-63
2024/01/11 02:46:50;;;;;;;27.97;17.60;;;;;;;-6.98;100.00;103009.78;5028039;28;20307;-63
2024/01/11 02:49:16;;;;;;;24.27;15.67;;;;;;;-6.99;100.00;103013.91;5027464;28;20477;-63
2024/01/11 02:51:41;;;;;;;27.43;16.60;;;;;;;-7.01;100.00;103009.34;5027651;28;20059;-63
2024/01/11 02:54:06;;;;;;;26.67;15.33;;;;;;;-7.01;100.00;103010.28;5020348;28;20552;-63
2024/01/11 02:56:32;;;;;;;26.23;16.47;;;;;;;-7.03;100.00;103021.75;5027497;28;20067;-63
2024/01/11 02:58:57;;;;;;;25.97;16.90;;;;;;;-7.05;100.00;103018.09;5027287;28;20466;-64
2024/01/11 03:01:22;;;;;;;24.60;16.17;;;;;;;-7.06;100.00;103016.28;5027475;28;20096;-63
2024/01/11 03:03:48;;;;;;;27.43;16.17;;;;;;;-7.07;100.00;103017.00;5026888;28;20018;-64
2024/01/11 03:06:14;;;;;;;27.60;17.07;;;;;;;-7.08;100.00;103012.63;5027441;28;20558;-63
2024/01/11 03:08:39;;;;;;;28.53;16.50;;;;;;;-7.14;100.00;103015.22;5027050;28;20474;-63
2024/01/11 03:11:04;;;;;;;28.07;16.37;;;;;;;-7.17;100.00;103009.75;5027030;28;20021;-63
2024/01/11 03:13:31;;;;;;;27.00;18.17;;;;;;;-7.18;100.00;103019.63;5027449;28;20014;-64
2024/01/11 03:15:57;;;;;;;28.67;17.27;;;;;;;-7.19;100.00;103017.78;5027191;28;20063;-63
2024/01/11 03:18:22;;;;;;;26.27;16.13;;;;;;;-7.21;100.00;103016.69;5026738;28;20375;-62
2024/01/11 03:20:48;;;;;;;25.90;15.80;;;;;;;-7.23;100.00;103016.44;5026870;28;20025;-63
2024/01/11 03:23:13;;;;;;;26.77;17.67;;;;;;;-7.25;100.00;103018.75;5026266;28;20447;-62
2024/01/11 03:25:38;;;;;;;24.53;16.73;;;;;;;-7.24;100.00;103010.53;5027143;28;20464;-63
2024/01/11 03:28:03;;;;;;;27.07;17.57;;;;;;;-7.23;100.00;103011.41;5025000;28;20420;-63
2024/01/11 03:30:30;;;;;;;29.47;17.30;;;;;;;-7.23;100.00;103014.84;5026683;28;20026;-63
2024/01/11 03:32:55;;;;;;;29.00;16.93;;;;;;;-7.25;100.00;103016.25;5026507;28;20100;-63
2024/01/11 03:35:21;;;;;;;26.53;17.10;;;;;;;-7.25;100.00;103012.84;5026531;28;20400;-62
2024/01/11 03:37:46;;;;;;;30.63;18.13;;;;;;;-7.25;100.00;103020.41;5025502;28;20018;-63
2024/01/11 03:40:11;;;;;;;26.93;16.60;;;;;;;-7.26;100.00;103016.97;5026718;28;20448;-63
2024/01/11 03:42:36;;;;;;;26.53;17.13;;;;;;;-7.25;100.00;103013.72;5026225;28;20018;-63
2024/01/11 03:45:03;;;;;;;27.03;17.43;;;;;;;-7.26;100.00;103001.84;5026073;28;20032;-63
2024/01/11 03:47:28;;;;;;;28.77;17.00;;;;;;;-7.25;100.00;103005.28;5026590;28;20041;-63
2024/01/11 03:49:54;;;;;;;26.57;17.27;;;;;;;-7.26;100.00;103011.00;5026346;28;20120;-63
2024/01/11 03:52:19;;;;;;;31.57;17.67;;;;;;;-7.27;100.00;103015.16;5026384;28;20524;-61
2024/01/11 03:54:45;;;;;;;29.10;16.77;;;;;;;-7.29;100.00;103011.50;5026820;28;20067;-63
2024/01/11 03:57:10;;;;;;;29.17;18.30;;;;;;;-7.32;100.00;103018.59;5026656;28;20033;-63
2024/01/11 03:59:35;;;;;;;26.30;15.80;;;;;;;-7.33;100.00;103028.47;5026573;28;20029;-63
2024/01/11 04:02:00;;;;;;;25.77;16.60;;;;;;;-7.35;100.00;103016.59;5026031;28;20057;-63
2024/01/11 04:04:26;;;;;;;27.30;16.90;;;;;;;-7.35;100.00;103013.16;5026625;28;20021;-64
2024/01/11 04:06:52;;;;;;;24.67;16.30;;;;;;;-7.36;100.00;103004.66;5026539;28;20393;-64
2024/01/11 04:09:17;;;;;;;28.07;17.87;;;;;;;-7.35;100.00;103008.09;5025989;28;20037;-64
2024/01/11 04:11:42;;;;;;;24.47;15.83;;;;;;;-7.37;100.00;103006.97;5026656;28;20021;-64
2024/01/11 04:14:08;;;;;;;29.57;17.30;;;;;;;-7.40;100.00;103021.69;5025816;28;20025;-64
2024/01/11 04:16:33;;;;;;;27.53;16.73;;;;;;;-7.42;100.00;103033.16;5026445;28;20034;-65
2024/01/11 04:18:59;;;;;;;27.93;16.90;;;;;;;-7.45;100.00;103048.75;5026363;28;20029;-66
2024/01/11 04:21:29;;;;;;;27.37;16.77;;;;;;;-7.45;100.00;103053.81;5026375;28;20032;-65
2024/01/11 04:23:55;;;;;;;28.93;17.37;;;;;;;-7.44;100.00;103050.56;5026097;28;20044;-63
2024/01/11 04:26:21;;;;;;;30.93;16.13;;;;;;;-7.41;100.00;103045.06;5024652;28;20025;-63
2024/01/11 04:28:47;;;;;;;27.93;16.73;;;;;;;-7.38;100.00;103036.34;5025911;28;20501;-63
2024/01/11 04:31:14;;;;;;;27.93;16.53;;;;;;;-7.37;100.00;103048.22;5025841;28;20303;-63
2024/01/11 04:33:43;;;;;;;26.87;16.10;;;;;;;-7.33;100.00;103054.59;5026171;28;20018;-63
2024/01/11 04:36:09;;;;;;;25.40;15.07;;;;;;;-7.32;100.00;103058.03;5025772;28;20417;-63
2024/01/11 04:38:34;;;;;;;25.83;15.80;;;;;;;-7.30;100.00;103070.16;5026064;28;20450;-64
2024/01/11 04:41:00;;;;;;;23.97;14.27;;;;;;;-7.30;100.00;103075.19;5026396;28;20032;-64
2024/01/11 04:43:25;;;;;;;29.70;16.87;;;;;;;-7.25;100.00;103074.22;5026190;28;20432;-62
2024/01/11 04:45:51;;;;;;;26.23;15.37;;;;;;;-7.24;100.00;103073.53;5026039;28;20036;-62
2024/01/11 04:48:17;;;;;;;25.13;15.47;;;;;;;-7.23;100.00;103057.69;5026248;28;20032;-63
2024/01/11 04:50:43;;;;;;;25.40;15.03;;;;;;;-7.19;100.00;103048.03;5025703;28;20102;-63
2024/01/11 04:53:08;;;;;;;24.67;14.37;;;;;;;-7.21;100.00;103054.50;5027902;28;20030;-63
2024/01/11 04:55:34;;;;;;;24.37;13.43;;;;;;;-7.24;100.00;103054.97;5029850;28;20026;-64
2024/01/11 04:57:59;;;;;;;23.93;15.13;;;;;;;-7.27;100.00;103055.47;5029844;28;20033;-63
2024/01/11 05:00:24;;;;;;;22.53;14.30;;;;;;;-7.30;100.00;103059.16;5029337;28;20025;-63
2024/01/11 05:02:50;;;;;;;25.33;15.90;;;;;;;-7.34;100.00;103055.31;5030287;28;20017;-63
2024/01/11 05:05:15;;;;;;;23.50;14.63;;;;;;;-7.39;100.00;103058.75;5030021;28;20036;-63
2024/01/11 05:07:40;;;;;;;23.80;14.73;;;;;;;-7.42;100.00;103063.38;5030330;28;20045;-63
2024/01/11 05:10:06;;;;;;;23.97;14.17;;;;;;;-7.46;100.00;103062.03;5030148;28;20087;-63
2024/01/11 05:12:32;;;;;;;23.67;14.77;;;;;;;-7.52;100.00;103068.75;5029997;28;20021;-63
2024/01/11 05:14:57;;;;;;;25.33;15.73;;;;;;;-7.55;100.00;103076.78;5029450;28;20025;-62
2024/01/11 05:17:22;;;;;;;27.27;15.07;;;;;;;-7.58;100.00;103071.31;5030235;28;20328;-63
2024/01/11 05:19:47;;;;;;;28.90;15.40;;;;;;;-7.63;100.00;103075.72;5029993;28;20033;-63
2024/01/11 05:22:13;;;;;;;23.93;15.60;;;;;;;-7.64;100.00;103070.44;5029936;28;20287;-63
2024/01/11 05:24:38;;;;;;;25.33;14.23;;;;;;;-7.68;100.00;103068.19;5029387;28;20022;-63
2024/01/11 05:27:03;;;;;;;28.47;14.67;;;;;;;-7.72;100.00;103067.72;5029484;28;20094;-64
2024/01/11 05:29:29;;;;;;;22.33;13.57;;;;;;;-7.73;100.00;103073.47;5029648;28;20381;-63
2024/01/11 05:31:54;;;;;;;25.07;14.10;;;;;;;-7.73;100.00;103081.03;5029714;28;20488;-63
2024/01/11 05:34:19;;;;;;;26.37;14.70;;;;;;;-7.75;100.00;103084.94;5029641;28;20029;-63
2024/01/11 05:36:45;;;;;;;23.03;14.07;;;;;;;-7.72;100.00;103097.97;5029728;28;20017;-63
2024/01/11 05:39:10;;;;;;;25.57;13.70;;;;;;;-7.71;100.00;103093.84;5029641;28;20021;-62
2024/01/11 05:41:35;;;;;;;24.33;14.67;;;;;;;-7.68;100.00;103108.50;5029163;28;20025;-62
2024/01/11 05:44:01;;;;;;;29.47;15.03;;;;;;;-7.67;100.00;103112.81;5029377;28;20056;-63
2024/01/11 05:46:26;;;;;;;26.30;15.13;;;;;;;-7.63;100.00;103118.53;5029738;28;20017;-63
2024/01/11 05:48:51;;;;;;;24.30;15.83;;;;;;;-7.60;100.00;103105.44;5029805;28;20132;-63
2024/01/11 05:51:16;;;;;;;21.50;15.00;;;;;;;-7.56;100.00;103085.03;5029280;28;20520;-63
2024/01/11 05:53:42;;;;;;;27.33;14.93;;;;;;;-7.54;100.00;103091.22;5029446;28;20013;-63
2024/01/11 05:56:10;;;;;;;24.13;14.43;;;;;;;-7.53;100.00;103082.03;5028743;28;20179;-63
2024/01/11 05:58:39;;;;;;;22.40;15.50;;;;;;;-7.54;100.00;103093.72;5029435;28;20180;-62
2024/01/11 06:01:04;;;;;;;25.87;15.67;;;;;;;-7.55;100.00;103096.94;5029318;28;20537;-63
2024/01/11 06:03:33;;;;;;;24.33;15.83;;;;;;;-7.59;100.00;103095.59;5027570;28;20021;-63
2024/01/11 06:05:59;;;;;;;24.47;15.63;;;;;;;-7.62;100.00;103099.28;5028443;28;20025;-63
2024/01/11 06:08:25;;;;;;;24.80;15.33;;;;;;;-7.65;100.00;103104.81;5028410;28;20161;-63
2024/01/11 06:10:50;;;;;;;21.87;14.27;;;;;;;-7.68;100.00;103119.47;5028803;28;20029;-63
2024/01/11 06:13:15;;;;;;;21.57;14.47;;;;;;;-7.73;100.00;103118.81;5028281;28;20028;-63
2024/01/11 06:15:40;;;;;;;22.57;14.60;;;;;;;-7.73;100.00;103130.47;5028272;28;20086;-63
2024/01/11 06:18:06;;;;;;;29.17;14.77;;;;;;;-7.70;100.00;103125.91;5028073;28;20029;-63
2024/01/11 06:20:31;;;;;;;20.67;13.90;;;;;;;-7.65;100.00;103126.56;5027911;28;20029;-63
2024/01/11 06:22:56;;;;;;;21.33;14.43;;;;;;;-7.64;100.00;103111.66;5028125;28;20028;-63
2024/01/11 06:25:21;;;;;;;24.73;14.87;;;;;;;-7.63;100.00;103107.53;5028196;28;20051;-64
2024/01/11 06:27:47;;;;;;;23.67;14.00;;;;;;;-7.63;100.00;103115.09;5028032;28;20037;-63
2024/01/11 06:30:13;;;;;;;21.10;13.80;;;;;;;-7.65;100.00;103117.41;5027459;28;20396;-63
2024/01/11 06:32:38;;;;;;;20.43;13.90;;;;;;;-7.65;100.00;103129.06;5024684;28;20026;-63
2024/01/11 06:35:05;;;;;;;24.13;14.87;;;;;;;-7.67;100.00;103120.38;5027923;28;20107;-63
2024/01/11 06:37:30;;;;;;;25.37;14.67;;;;;;;-7.71;100.00;103114.91;5028040;28;20443;-63
2024/01/11 06:39:56;;;;;;;24.47;14.67;;;;;;;-7.74;100.00;103108.53;5027940;28;20021;-63
2024/01/11 06:42:21;;;;;;;26.47;14.73;;;;;;;-7.78;100.00;103114.72;5026577;28;20036;-63
2024/01/11 06:44:46;;;;;;;24.10;14.63;;;;;;;-7.80;100.00;103123.66;5026997;28;20430;-63
2024/01/11 06:47:12;;;;;;;21.83;13.43;;;;;;;-7.84;100.00;103131.47;5026985;28;20025;-62
2024/01/11 06:49:41;;;;;;;23.87;15.17;;;;;;;-7.87;100.00;103128.50;5022984;28;20140;-63
2024/01/11 06:52:06;;;;;;;20.80;14.80;;;;;;;-7.91;100.00;103129.69;5032042;28;20044;-63
2024/01/11 06:54:32;;;;;;;22.33;15.13;;;;;;;-7.91;100.00;103128.75;5030072;28;20018;-63
2024/01/11 06:56:57;;;;;;;24.03;15.07;;;;;;;-7.96;100.00;103131.56;5024871;28;20132;-63
2024/01/11 06:59:23;;;;;;;23.67;15.30;;;;;;;-7.99;100.00;103141.19;5042651;28;20029;-64
2024/01/11 07:01:49;;;;;;;23.50;15.00;;;;;;;-8.01;100.00;103141.66;5036920;28;20075;-63
2024/01/11 07:04:14;;;;;;;24.77;14.27;;;;;;;-8.03;100.00;103146.47;5028712;28;20370;-62
2024/01/11 07:06:39;;;;;;;21.33;13.70;;;;;;;-8.06;100.00;103143.50;5030158;28;20051;-63
2024/01/11 07:09:05;;;;;;;24.57;15.00;;;;;;;-8.07;100.00;103150.13;5017240;28;20029;-63
2024/01/11 07:11:32;;;;;;;24.33;15.17;;;;;;;-8.07;100.00;103147.63;5025506;28;20029;-63
2024/01/11 07:13:57;;;;;;;23.97;15.10;;;;;;;-8.08;100.00;103152.44;5021687;28;20029;-63
2024/01/11 07:16:22;;;;;;;23.77;15.40;;;;;;;-8.08;100.00;103165.03;5025329;28;20056;-63
2024/01/11 07:18:48;;;;;;;26.03;15.07;;;;;;;-8.08;100.00;103173.47;5027128;28;20033;-63
2024/01/11 07:21:20;;;;;;;23.77;14.57;;;;;;;-8.07;100.00;103164.31;5026102;28;20091;-63
2024/01/11 07:23:45;;;;;;;25.53;15.33;;;;;;;-8.03;100.00;103169.13;5018498;28;20037;-63
2024/01/11 07:26:10;;;;;;;24.73;15.00;;;;;;;-7.99;100.00;103161.31;5023647;28;20477;-62
2024/01/11 07:28:36;;;;;;;24.17;14.43;;;;;;;-7.95;100.00;103163.56;5023914;28;20045;-62
2024/01/11 07:31:02;;;;;;;24.77;14.47;;;;;;;-7.91;100.00;103166.53;5025264;28;20025;-63
2024/01/11 07:33:27;;;;;;;25.17;14.20;;;;;;;-7.88;100.00;103182.09;5025640;28;20043;-61
2024/01/11 07:35:52;;;;;;;23.90;13.63;;;;;;;-7.88;100.00;103172.91;5026280;28;20072;-63
2024/01/11 07:38:18;;;;;;;23.70;14.47;;;;;;;-7.87;100.00;103171.31;5025428;28;20117;-63
2024/01/11 07:40:43;;;;;;;22.97;14.50;;;;;;;-7.85;100.00;103169.94;5026552;28;20044;-63
2024/01/11 07:43:08;;;;;;;21.40;14.50;;;;;;;-7.87;100.00;103167.22;5027152;28;20476;-63
2024/01/11 07:45:33;;;;;;;24.83;14.07;;;;;;;-7.86;100.00;103158.06;5025841;28;20067;-62
2024/01/11 07:47:59;;;;;;;25.53;14.90;;;;;;;-7.85;100.00;103157.34;5026427;28;20280;-63
2024/01/11 07:50:25;;;;;;;20.53;12.97;;;;;;;-7.89;100.00;103158.50;5026135;28;20053;-64
2024/01/11 07:52:50;;;;;;;23.40;14.37;;;;;;;-7.90;100.00;103168.38;5026002;28;20025;-64
2024/01/11 07:55:16;;;;;;;21.93;14.10;;;;;;;-7.91;100.00;103169.97;5026298;28;20040;-63
2024/01/11 07:57:42;;;;;;;24.23;14.30;;;;;;;-7.92;100.00;103172.25;5026430;28;20111;-64
2024/01/11 08:00:08;;;;;;;23.97;14.33;;;;;;;-7.90;100.00;103170.88;5026295;28;20030;-63
2024/01/11 08:02:34;;;;;;;23.30;13.50;;;;;;;-7.87;100.00;103176.34;5026349;28;20151;-64
2024/01/11 08:04:59;;;;;;;26.30;15.63;;;;;;;-7.85;100.00;103165.81;5026711;28;20521;-65
2024/01/11 08:07:26;;;;;;;26.53;14.53;;;;;;;-7.83;100.00;103158.50;5026308;28;20032;-64
2024/01/11 08:09:51;;;;;;;26.03;14.93;;;;;;;-7.78;100.00;103161.66;5025734;28;20060;-63
2024/01/11 08:12:17;;;;;;;23.63;14.17;;;;;;;-7.77;100.00;103159.34;5026263;28;20072;-63
2024/01/11 08:14:42;;;;;;;24.47;14.20;;;;;;;-7.75;100.00;103157.97;5026685;28;20041;-63
2024/01/11 08:17:08;;;;;;;22.17;14.20;;;;;;;-7.72;100.00;103153.38;5026464;28;20524;-63
2024/01/11 08:19:34;;;;;;;24.70;15.70;;;;;;;-7.67;100.00;103148.09;5025641;28;20552;-62
2024/01/11 08:22:00;;;;;;;24.00;14.67;;;;;;;-7.65;100.00;103146.69;5025730;28;20030;-63
2024/01/11 08:24:25;;;;;;;23.43;15.00;;;;;;;-7.65;100.00;103134.09;5026083;28;20041;-63
2024/01/11 08:26:51;;;;;;;25.43;15.37;;;;;;;-7.63;100.00;103142.81;5026412;28;20026;-64
2024/01/11 08:29:18;;;;;;;22.40;15.40;;;;;;;-7.63;100.00;103143.72;5029454;28;20029;-63
2024/01/11 08:31:44;;;;;;;24.77;14.17;;;;;;;-7.59;100.00;103150.09;5029877;28;20042;-63
2024/01/11 08:34:10;;;;;;;24.83;15.20;;;;;;;-7.55;100.00;103151.44;5030524;28;20377;-63
2024/01/11 08:36:36;;;;;;;22.23;14.20;;;;;;;-7.52;100.00;103157.81;5029399;28;20493;-64
2024/01/11 08:39:07;;;;;;;19.33;13.30;;;;;;;-7.48;100.00;103167.66;5030418;28;20359;-63
2024/01/11 08:41:33;;;;;;;25.87;13.80;;;;;;;-7.44;100.00;103153.88;5017778;28;20104;-64
2024/01/11 08:43:59;;;;;;;23.57;14.13;;;;;;;-7.36;100.00;103154.97;5030252;28;20033;-64
2024/01/11 08:46:25;;;;;;;21.77;13.73;;;;;;;-7.28;100.00;103134.28;5029730;28;20362;-64
2024/01/11 08:48:51;;;;;;;23.03;15.37;;;;;;;-7.16;100.00;103144.28;5029490;28;20037;-63
2024/01/11 08:51:17;;;;;;;21.03;13.97;;;;;;;-6.99;100.00;103150.09;5029712;28;20053;-63
2024/01/11 08:53:42;;;;;;;21.83;14.93;;;;;;;-6.70;100.00;103154.84;5029618;28;20040;-63
2024/01/11 08:56:07;;;;;;;20.70;14.23;;;;;;;-6.25;100.00;103162.59;5029079;28;20029;-63
2024/01/11 08:58:33;;;;;;;22.20;14.07;;;;;;;-5.84;100.00;103168.94;5030029;28;20041;-63
2024/01/11 09:00:58;;;;;;;22.07;13.97;;;;;;;-5.55;100.00;103182.09;5029131;28;20104;-64
2024/01/11 09:03:24;;;;;;;24.60;15.30;;;;;;;-5.38;100.00;103178.41;5029306;28;20025;-63
2024/01/11 09:05:50;;;;;;;20.53;13.47;;;;;;;-5.33;100.00;103181.53;5029361;28;20037;-64
2024/01/11 09:08:15;;;;;;;21.10;14.97;;;;;;;-5.32;100.00;103184.25;5029525;28;20275;-64
2024/01/11 09:10:41;;;;;;;21.97;14.23;;;;;;;-5.33;100.00;103191.66;5029155;28;20060;-64
2024/01/11 09:13:07;;;;;;;22.10;14.33;;;;;;;-5.37;100.00;103190.31;5028943;28;20422;-63
2024/01/11 09:15:32;;;;;;;23.03;13.73;;;;;;;-5.44;100.00;103192.72;5029130;28;20169;-64
2024/01/11 09:18:00;;;;;;;21.73;14.63;;;;;;;-5.52;100.00;103186.63;5029748;28;20038;-64
2024/01/11 09:20:25;;;;;;;22.60;15.07;;;;;;;-5.59;100.00;103197.53;5028599;28;20359;-64
2024/01/11 09:22:50;;;;;;;22.00;14.03;;;;;;;-5.65;100.00;103196.72;5029096;28;20044;-63
2024/01/11 09:25:16;;;;;;;20.37;14.90;;;;;;;-5.71;100.00;103203.44;5028508;28;20466;-64
2024/01/11 09:27:41;;;;;;;22.07;15.00;;;;;;;-5.71;100.00;103203.44;5029329;28;20021;-64
2024/01/11 09:30:07;;;;;;;22.03;15.07;;;;;;;-5.71;100.00;103203.44;5028720;28;20079;-64
2024/01/11 09:32:32;;;;;;;24.33;16.43;;;;;;;-5.73;100.00;103209.91;5028869;28;20470;-63
2024/01/11 09:34:57;;;;;;;28.00;17.13;;;;;;;-5.72;100.00;103217.69;5028688;28;20029;-64
2024/01/11 09:37:22;;;;;;;25.00;15.40;;;;;;;-5.73;100.00;103213.34;5028547;28;20095;-63
2024/01/11 09:39:48;;;;;;;25.57;15.67;;;;;;;-5.72;100.00;103230.31;5024633;28;20046;-63
2024/01/11 09:42:13;;;;;;;22.70;14.87;;;;;;;-5.70;100.00;103228.03;5027233;28;20025;-62
2024/01/11 09:44:39;;;;;;;27.20;15.83;;;;;;;-5.69;100.00;103229.84;5027330;28;20021;-62
2024/01/11 09:47:07;;;;;;;21.70;14.37;;;;;;;-5.68;100.00;103230.03;5031171;28;20064;-61
2024/01/11 09:49:35;;;;;;;25.67;15.67;;;;;;;-5.66;100.00;103230.25;5025114;28;20037;-60
2024/01/11 09:52:01;;;;;;;24.00;15.90;;;;;;;-5.63;100.00;103235.72;5026064;28;20060;-62
2024/01/11 09:54:27;;;;;;;25.47;16.40;;;;;;;-5.61;100.00;103231.78;5025387;28;20533;-62
2024/01/11 09:56:57;;;;;;;22.80;16.33;;;;;;;-5.58;100.00;103228.78;5026869;28;20116;-62
2024/01/11 09:59:23;;;;;;;24.80;17.03;;;;;;;-5.55;100.00;103240.22;5027599;28;20478;-62
2024/01/11 10:01:49;;;;;;;27.70;17.80;;;;;;;-5.51;100.00;103240.63;5028931;28;20030;-62
2024/01/11 10:04:16;;;;;;;25.60;16.70;;;;;;;-5.47;100.00;103245.41;5028779;28;20390;-61
2024/01/11 10:06:42;;;;;;;25.43;16.47;;;;;;;-5.41;100.00;103243.69;5028676;28;20091;-61
2024/01/11 10:09:08;;;;;;;25.43;17.70;;;;;;;-5.36;100.00;103246.88;5014917;28;20324;-62
2024/01/11 10:11:34;;;;;;;23.80;16.67;;;;;;;-5.28;100.00;103245.34;5028427;28;20086;-61
2024/01/11 10:14:01;;;;;;;27.70;16.97;;;;;;;-5.20;100.00;103243.16;5028765;28;20025;-62
2024/01/11 10:16:28;;;;;;;26.93;16.90;;;;;;;-5.11;100.00;103248.53;5027893;28;20064;-62
2024/01/11 10:18:54;;;;;;;29.03;20.27;;;;;;;-5.02;100.00;103253.03;5028201;28;20045;-62
2024/01/11 10:21:20;;;;;;;25.17;17.07;;;;;;;-4.92;100.00;103247.56;5028690;28;20025;-62
2024/01/11 10:23:45;;;;;;;24.00;16.90;;;;;;;-4.83;100.00;103252.25;5027780;28;20034;-62
2024/01/11 10:26:10;;;;;;;23.77;16.63;;;;;;;-4.74;100.00;103250.03;5026657;28;20497;-62
2024/01/11 10:28:38;;;;;;;24.13;15.87;;;;;;;-4.65;100.00;103251.94;5028355;28;20037;-62
2024/01/11 10:31:07;;;;;;;24.80;17.03;;;;;;;-4.59;100.00;103256.19;5026685;28;20047;-62
2024/01/11 10:33:33;;;;;;;24.50;16.90;;;;;;;-4.50;100.00;103260.66;5028198;28;20059;-62
2024/01/11 10:36:00;;;;;;;22.97;16.83;;;;;;;-4.46;100.00;103257.81;5028018;28;20108;-62
2024/01/11 10:38:26;;;;;;;24.27;16.53;;;;;;;-4.41;100.00;103264.41;5027517;28;20025;-62
2024/01/11 10:40:55;;;;;;;23.20;16.83;;;;;;;-4.37;100.00;103266.63;5027483;28;20029;-62
2024/01/11 10:43:22;;;;;;;25.30;17.33;;;;;;;-4.31;100.00;103263.06;5027742;28;20104;-63
2024/01/11 10:45:49;;;;;;;24.07;16.07;;;;;;;-4.27;100.00;103250.13;5027612;28;20029;-62
2024/01/11 10:48:15;;;;;;;25.53;16.77;;;;;;;-4.23;100.00;103265.00;5028096;28;20444;-62
2024/01/11 10:50:43;;;;;;;26.17;18.77;;;;;;;-4.20;100.00;103256.88;5027233;28;20391;-62
2024/01/11 10:53:27;;;;;;;26.20;18.63;;;;;;;-4.16;100.00;103254.97;5027001;28;20036;-62
2024/01/11 10:55:55;;;;;;;26.03;17.50;;;;;;;-4.13;100.00;103250.31;5027428;28;20116;-62